sensor_id;sensor_type;location;lat;lon;timestamp;P1;durP1;ratioP1;P2;durP2;ratioP2
48951;SDS011;34758;42.148;24.744;2022-11-20T00:01:28;28.52;;;20.55;;
48951;SDS011;34758;42.148;24.744;2022-11-20T00:03:55;39.30;;;26.63;;
48951;SDS011;34758;42.148;24.744;2022-11-20T00:06:23;35.33;;;23.48;;
48951;SDS011;34758;42.148;24.744;2022-11-20T00:08:51;30.30;;;21.52;;
48951;SDS011;34758;42.148;24.744;2022-11-20T00:11:21;34.03;;;22.35;;
48951;SDS011;34758;42.148;24.744;2022-11-20T00:13:49;27.40;;;20.65;;
48951;SDS011;34758;42.148;24.744;2022-11-20T00:16:18;30.98;;;20.67;;
48951;SDS011;34758;42.148;24.744;2022-11-20T00:18:45;32.30;;;22.75;;
48951;SDS011;34758;42.148;24.744;2022-11-20T00:21:13;28.23;;;20.25;;
48951;SDS011;34758;42.148;24.744;2022-11-20T00:23:41;28.58;;;20.92;;
48951;SDS011;34758;42.148;24.744;2022-11-20T00:26:08;33.03;;;23.23;;
48951;SDS011;34758;42.148;24.744;2022-11-20T00:28:38;31.92;;;22.73;;
48951;SDS011;34758;42.148;24.744;2022-11-20T00:31:08;30.60;;;21.73;;
48951;SDS011;34758;42.148;24.744;2022-11-20T00:33:36;25.88;;;20.88;;
48951;SDS011;34758;42.148;24.744;2022-11-20T00:36:03;32.50;;;22.00;;
48951;SDS011;34758;42.148;24.744;2022-11-20T00:38:31;32.45;;;21.83;;
48951;SDS011;34758;42.148;24.744;2022-11-20T00:40:59;33.88;;;22.30;;
48951;SDS011;34758;42.148;24.744;2022-11-20T00:43:26;33.08;;;20.95;;
48951;SDS011;34758;42.148;24.744;2022-11-20T00:45:58;34.60;;;22.85;;
48951;SDS011;34758;42.148;24.744;2022-11-20T00:48:25;31.65;;;21.20;;
48951;SDS011;34758;42.148;24.744;2022-11-20T00:50:53;29.90;;;21.65;;
48951;SDS011;34758;42.148;24.744;2022-11-20T00:53:20;28.42;;;21.02;;
48951;SDS011;34758;42.148;24.744;2022-11-20T00:55:53;28.85;;;22.35;;
48951;SDS011;34758;42.148;24.744;2022-11-20T00:58:21;34.00;;;21.88;;
48951;SDS011;34758;42.148;24.744;2022-11-20T01:00:48;25.10;;;19.90;;
48951;SDS011;34758;42.148;24.744;2022-11-20T01:03:17;28.05;;;21.00;;
48951;SDS011;34758;42.148;24.744;2022-11-20T01:05:46;29.17;;;21.17;;
48951;SDS011;34758;42.148;24.744;2022-11-20T01:08:13;26.50;;;19.73;;
48951;SDS011;34758;42.148;24.744;2022-11-20T01:10:40;30.17;;;20.23;;
48951;SDS011;34758;42.148;24.744;2022-11-20T01:13:07;34.05;;;21.17;;
48951;SDS011;34758;42.148;24.744;2022-11-20T01:15:51;28.85;;;19.58;;
48951;SDS011;34758;42.148;24.744;2022-11-20T01:18:20;29.13;;;20.23;;
48951;SDS011;34758;42.148;24.744;2022-11-20T01:20:46;29.95;;;20.77;;
48951;SDS011;34758;42.148;24.744;2022-11-20T01:23:13;28.55;;;20.60;;
48951;SDS011;34758;42.148;24.744;2022-11-20T01:25:40;29.50;;;19.98;;
48951;SDS011;34758;42.148;24.744;2022-11-20T01:28:07;25.73;;;17.45;;
48951;SDS011;34758;42.148;24.744;2022-11-20T01:30:34;26.42;;;19.85;;
48951;SDS011;34758;42.148;24.744;2022-11-20T01:33:01;30.00;;;20.13;;
48951;SDS011;34758;42.148;24.744;2022-11-20T01:35:29;25.80;;;20.27;;
48951;SDS011;34758;42.148;24.744;2022-11-20T01:37:57;31.40;;;20.90;;
48951;SDS011;34758;42.148;24.744;2022-11-20T01:40:24;30.10;;;20.65;;
48951;SDS011;34758;42.148;24.744;2022-11-20T01:42:52;31.40;;;20.65;;
48951;SDS011;34758;42.148;24.744;2022-11-20T01:45:50;30.47;;;20.63;;
48951;SDS011;34758;42.148;24.744;2022-11-20T01:48:26;25.17;;;19.20;;
48951;SDS011;34758;42.148;24.744;2022-11-20T01:50:58;31.17;;;20.70;;
48951;SDS011;34758;42.148;24.744;2022-11-20T01:53:28;29.45;;;19.40;;
48951;SDS011;34758;42.148;24.744;2022-11-20T01:55:58;30.65;;;19.42;;
48951;SDS011;34758;42.148;24.744;2022-11-20T01:58:27;28.45;;;19.40;;
48951;SDS011;34758;42.148;24.744;2022-11-20T02:00:56;28.50;;;19.17;;
48951;SDS011;34758;42.148;24.744;2022-11-20T02:03:23;28.98;;;21.23;;
48951;SDS011;34758;42.148;24.744;2022-11-20T02:05:51;30.92;;;21.42;;
48951;SDS011;34758;42.148;24.744;2022-11-20T02:08:21;26.70;;;19.73;;
48951;SDS011;34758;42.148;24.744;2022-11-20T02:10:49;30.90;;;20.48;;
48951;SDS011;34758;42.148;24.744;2022-11-20T02:13:16;29.15;;;20.20;;
48951;SDS011;34758;42.148;24.744;2022-11-20T02:16:01;30.92;;;19.73;;
48951;SDS011;34758;42.148;24.744;2022-11-20T02:18:28;31.25;;;20.08;;
48951;SDS011;34758;42.148;24.744;2022-11-20T02:20:56;27.85;;;19.67;;
48951;SDS011;34758;42.148;24.744;2022-11-20T02:25:58;28.02;;;18.55;;
48951;SDS011;34758;42.148;24.744;2022-11-20T02:28:25;30.30;;;19.58;;
48951;SDS011;34758;42.148;24.744;2022-11-20T02:30:53;31.10;;;19.15;;
48951;SDS011;34758;42.148;24.744;2022-11-20T02:33:20;25.40;;;17.77;;
48951;SDS011;34758;42.148;24.744;2022-11-20T02:35:47;22.63;;;16.02;;
48951;SDS011;34758;42.148;24.744;2022-11-20T02:38:14;26.17;;;17.10;;
48951;SDS011;34758;42.148;24.744;2022-11-20T02:40:41;30.88;;;17.70;;
48951;SDS011;34758;42.148;24.744;2022-11-20T02:43:11;26.25;;;18.25;;
48951;SDS011;34758;42.148;24.744;2022-11-20T02:45:38;24.77;;;17.00;;
48951;SDS011;34758;42.148;24.744;2022-11-20T02:48:05;27.25;;;17.02;;
48951;SDS011;34758;42.148;24.744;2022-11-20T02:50:36;24.58;;;18.00;;
48951;SDS011;34758;42.148;24.744;2022-11-20T02:53:04;22.40;;;14.80;;
48951;SDS011;34758;42.148;24.744;2022-11-20T02:55:30;23.52;;;14.52;;
48951;SDS011;34758;42.148;24.744;2022-11-20T02:57:57;21.70;;;15.95;;
48951;SDS011;34758;42.148;24.744;2022-11-20T03:00:25;25.85;;;15.40;;
48951;SDS011;34758;42.148;24.744;2022-11-20T03:02:52;22.23;;;15.48;;
48951;SDS011;34758;42.148;24.744;2022-11-20T03:05:19;22.25;;;14.90;;
48951;SDS011;34758;42.148;24.744;2022-11-20T03:07:46;21.55;;;13.63;;
48951;SDS011;34758;42.148;24.744;2022-11-20T03:10:13;20.33;;;12.43;;
48951;SDS011;34758;42.148;24.744;2022-11-20T03:12:41;21.33;;;14.13;;
48951;SDS011;34758;42.148;24.744;2022-11-20T03:15:08;21.25;;;12.95;;
48951;SDS011;34758;42.148;24.744;2022-11-20T03:17:37;19.33;;;13.27;;
48951;SDS011;34758;42.148;24.744;2022-11-20T03:20:05;21.02;;;12.50;;
48951;SDS011;34758;42.148;24.744;2022-11-20T03:22:35;23.75;;;12.80;;
48951;SDS011;34758;42.148;24.744;2022-11-20T03:25:02;21.33;;;13.32;;
48951;SDS011;34758;42.148;24.744;2022-11-20T03:27:32;23.58;;;14.73;;
48951;SDS011;34758;42.148;24.744;2022-11-20T03:30:00;22.33;;;13.27;;
48951;SDS011;34758;42.148;24.744;2022-11-20T03:32:27;22.45;;;13.25;;
48951;SDS011;34758;42.148;24.744;2022-11-20T03:34:57;20.63;;;13.05;;
48951;SDS011;34758;42.148;24.744;2022-11-20T03:37:24;22.40;;;12.23;;
48951;SDS011;34758;42.148;24.744;2022-11-20T03:39:51;17.73;;;11.25;;
48951;SDS011;34758;42.148;24.744;2022-11-20T03:42:18;16.17;;;10.38;;
48951;SDS011;34758;42.148;24.744;2022-11-20T03:45:02;17.80;;;11.45;;
48951;SDS011;34758;42.148;24.744;2022-11-20T03:47:31;22.88;;;11.07;;
48951;SDS011;34758;42.148;24.744;2022-11-20T03:49:59;18.48;;;10.52;;
48951;SDS011;34758;42.148;24.744;2022-11-20T03:52:26;23.92;;;12.02;;
48951;SDS011;34758;42.148;24.744;2022-11-20T03:54:53;15.93;;;9.85;;
48951;SDS011;34758;42.148;24.744;2022-11-20T03:57:20;16.17;;;9.07;;
48951;SDS011;34758;42.148;24.744;2022-11-20T03:59:47;15.95;;;9.23;;
48951;SDS011;34758;42.148;24.744;2022-11-20T04:02:14;13.15;;;8.63;;
48951;SDS011;34758;42.148;24.744;2022-11-20T04:04:41;17.08;;;8.00;;
48951;SDS011;34758;42.148;24.744;2022-11-20T04:07:09;14.23;;;8.05;;
48951;SDS011;34758;42.148;24.744;2022-11-20T04:09:37;14.60;;;7.53;;
48951;SDS011;34758;42.148;24.744;2022-11-20T04:12:04;14.82;;;8.40;;
48951;SDS011;34758;42.148;24.744;2022-11-20T04:14:32;16.83;;;7.43;;
48951;SDS011;34758;42.148;24.744;2022-11-20T04:16:59;11.45;;;6.90;;
48951;SDS011;34758;42.148;24.744;2022-11-20T04:19:26;11.52;;;6.93;;
48951;SDS011;34758;42.148;24.744;2022-11-20T04:21:55;16.30;;;6.78;;
48951;SDS011;34758;42.148;24.744;2022-11-20T04:24:24;13.13;;;6.00;;
48951;SDS011;34758;42.148;24.744;2022-11-20T04:26:51;13.93;;;7.20;;
48951;SDS011;34758;42.148;24.744;2022-11-20T04:29:18;14.13;;;6.05;;
48951;SDS011;34758;42.148;24.744;2022-11-20T04:31:45;16.70;;;6.32;;
48951;SDS011;34758;42.148;24.744;2022-11-20T04:34:13;12.40;;;5.38;;
48951;SDS011;34758;42.148;24.744;2022-11-20T04:36:40;9.50;;;4.68;;
48951;SDS011;34758;42.148;24.744;2022-11-20T04:39:11;10.25;;;3.88;;
48951;SDS011;34758;42.148;24.744;2022-11-20T04:41:41;8.70;;;3.57;;
48951;SDS011;34758;42.148;24.744;2022-11-20T04:44:09;10.57;;;3.90;;
48951;SDS011;34758;42.148;24.744;2022-11-20T04:46:38;13.15;;;3.53;;
48951;SDS011;34758;42.148;24.744;2022-11-20T04:49:06;12.98;;;4.00;;
48951;SDS011;34758;42.148;24.744;2022-11-20T04:51:34;10.07;;;3.88;;
48951;SDS011;34758;42.148;24.744;2022-11-20T04:54:01;7.90;;;3.40;;
48951;SDS011;34758;42.148;24.744;2022-11-20T04:56:28;10.07;;;4.10;;
48951;SDS011;34758;42.148;24.744;2022-11-20T04:58:59;11.23;;;3.22;;
48951;SDS011;34758;42.148;24.744;2022-11-20T05:01:27;8.82;;;3.40;;
48951;SDS011;34758;42.148;24.744;2022-11-20T05:03:55;7.65;;;2.00;;
48951;SDS011;34758;42.148;24.744;2022-11-20T05:06:21;8.35;;;2.65;;
48951;SDS011;34758;42.148;24.744;2022-11-20T05:08:48;8.05;;;2.35;;
48951;SDS011;34758;42.148;24.744;2022-11-20T05:11:16;6.32;;;2.08;;
48951;SDS011;34758;42.148;24.744;2022-11-20T05:13:45;6.97;;;2.10;;
48951;SDS011;34758;42.148;24.744;2022-11-20T05:16:15;10.90;;;2.50;;
48951;SDS011;34758;42.148;24.744;2022-11-20T05:18:43;6.40;;;2.30;;
48951;SDS011;34758;42.148;24.744;2022-11-20T05:21:10;7.93;;;2.10;;
48951;SDS011;34758;42.148;24.744;2022-11-20T05:23:38;9.32;;;2.92;;
48951;SDS011;34758;42.148;24.744;2022-11-20T05:26:06;10.82;;;2.22;;
48951;SDS011;34758;42.148;24.744;2022-11-20T05:28:34;8.32;;;1.92;;
48951;SDS011;34758;42.148;24.744;2022-11-20T05:31:05;7.57;;;1.80;;
48951;SDS011;34758;42.148;24.744;2022-11-20T05:33:35;7.82;;;1.90;;
48951;SDS011;34758;42.148;24.744;2022-11-20T05:36:02;9.25;;;2.00;;
48951;SDS011;34758;42.148;24.744;2022-11-20T05:38:30;6.97;;;2.20;;
48951;SDS011;34758;42.148;24.744;2022-11-20T05:41:02;9.10;;;2.05;;
48951;SDS011;34758;42.148;24.744;2022-11-20T05:43:31;8.13;;;2.47;;
48951;SDS011;34758;42.148;24.744;2022-11-20T05:45:59;10.43;;;2.50;;
48951;SDS011;34758;42.148;24.744;2022-11-20T05:48:26;7.45;;;2.10;;
48951;SDS011;34758;42.148;24.744;2022-11-20T05:50:55;8.07;;;2.75;;
48951;SDS011;34758;42.148;24.744;2022-11-20T05:53:23;10.88;;;2.35;;
48951;SDS011;34758;42.148;24.744;2022-11-20T05:55:56;7.93;;;3.40;;
48951;SDS011;34758;42.148;24.744;2022-11-20T05:58:23;8.85;;;3.63;;
48951;SDS011;34758;42.148;24.744;2022-11-20T06:00:50;8.85;;;4.07;;
48951;SDS011;34758;42.148;24.744;2022-11-20T06:03:17;9.57;;;3.42;;
48951;SDS011;34758;42.148;24.744;2022-11-20T06:05:44;9.20;;;3.67;;
48951;SDS011;34758;42.148;24.744;2022-11-20T06:08:13;10.98;;;4.22;;
48951;SDS011;34758;42.148;24.744;2022-11-20T06:10:40;10.38;;;4.47;;
48951;SDS011;34758;42.148;24.744;2022-11-20T06:13:07;10.15;;;4.18;;
48951;SDS011;34758;42.148;24.744;2022-11-20T06:15:35;12.68;;;4.60;;
48951;SDS011;34758;42.148;24.744;2022-11-20T06:18:02;9.32;;;4.25;;
48951;SDS011;34758;42.148;24.744;2022-11-20T06:20:30;8.05;;;3.85;;
48951;SDS011;34758;42.148;24.744;2022-11-20T06:22:57;9.90;;;3.83;;
48951;SDS011;34758;42.148;24.744;2022-11-20T06:25:28;7.18;;;3.95;;
48951;SDS011;34758;42.148;24.744;2022-11-20T06:27:55;16.25;;;5.60;;
48951;SDS011;34758;42.148;24.744;2022-11-20T06:30:22;9.77;;;3.70;;
48951;SDS011;34758;42.148;24.744;2022-11-20T06:32:49;7.63;;;3.72;;
48951;SDS011;34758;42.148;24.744;2022-11-20T06:35:16;10.25;;;4.50;;
48951;SDS011;34758;42.148;24.744;2022-11-20T06:37:43;9.85;;;4.28;;
48951;SDS011;34758;42.148;24.744;2022-11-20T06:40:11;10.65;;;3.65;;
48951;SDS011;34758;42.148;24.744;2022-11-20T06:42:39;9.57;;;3.50;;
48951;SDS011;34758;42.148;24.744;2022-11-20T06:45:07;12.98;;;3.75;;
48951;SDS011;34758;42.148;24.744;2022-11-20T06:47:35;9.95;;;3.58;;
48951;SDS011;34758;42.148;24.744;2022-11-20T06:50:02;12.68;;;4.25;;
48951;SDS011;34758;42.148;24.744;2022-11-20T06:52:30;9.77;;;3.20;;
48951;SDS011;34758;42.148;24.744;2022-11-20T06:54:56;9.25;;;3.53;;
48951;SDS011;34758;42.148;24.744;2022-11-20T06:57:24;10.80;;;3.20;;
48951;SDS011;34758;42.148;24.744;2022-11-20T06:59:52;8.73;;;3.25;;
48951;SDS011;34758;42.148;24.744;2022-11-20T07:02:19;10.27;;;3.53;;
48951;SDS011;34758;42.148;24.744;2022-11-20T07:04:47;8.90;;;3.30;;
48951;SDS011;34758;42.148;24.744;2022-11-20T07:07:14;9.48;;;4.13;;
48951;SDS011;34758;42.148;24.744;2022-11-20T07:09:41;9.05;;;3.75;;
48951;SDS011;34758;42.148;24.744;2022-11-20T07:12:08;6.72;;;2.65;;
48951;SDS011;34758;42.148;24.744;2022-11-20T07:14:35;8.43;;;3.15;;
48951;SDS011;34758;42.148;24.744;2022-11-20T07:17:05;9.18;;;3.50;;
48951;SDS011;34758;42.148;24.744;2022-11-20T07:19:32;8.95;;;3.10;;
48951;SDS011;34758;42.148;24.744;2022-11-20T07:21:59;10.60;;;3.13;;
48951;SDS011;34758;42.148;24.744;2022-11-20T07:24:26;11.23;;;3.47;;
48951;SDS011;34758;42.148;24.744;2022-11-20T07:26:53;13.75;;;3.42;;
48951;SDS011;34758;42.148;24.744;2022-11-20T07:29:20;8.85;;;4.20;;
48951;SDS011;34758;42.148;24.744;2022-11-20T07:31:47;13.27;;;4.95;;
48951;SDS011;34758;42.148;24.744;2022-11-20T07:34:15;11.30;;;4.38;;
48951;SDS011;34758;42.148;24.744;2022-11-20T07:36:42;11.25;;;3.40;;
48951;SDS011;34758;42.148;24.744;2022-11-20T07:39:09;7.18;;;3.03;;
48951;SDS011;34758;42.148;24.744;2022-11-20T07:41:36;10.50;;;3.25;;
48951;SDS011;34758;42.148;24.744;2022-11-20T07:44:03;9.98;;;3.45;;
48951;SDS011;34758;42.148;24.744;2022-11-20T07:46:30;13.52;;;3.83;;
48951;SDS011;34758;42.148;24.744;2022-11-20T07:48:57;10.38;;;3.95;;
48951;SDS011;34758;42.148;24.744;2022-11-20T07:51:26;13.60;;;4.43;;
48951;SDS011;34758;42.148;24.744;2022-11-20T07:53:53;9.27;;;3.92;;
48951;SDS011;34758;42.148;24.744;2022-11-20T07:56:20;10.23;;;3.63;;
48951;SDS011;34758;42.148;24.744;2022-11-20T07:58:47;13.27;;;4.95;;
48951;SDS011;34758;42.148;24.744;2022-11-20T08:01:14;8.68;;;4.72;;
48951;SDS011;34758;42.148;24.744;2022-11-20T08:03:42;22.40;;;5.93;;
48951;SDS011;34758;42.148;24.744;2022-11-20T08:06:09;11.27;;;4.75;;
48951;SDS011;34758;42.148;24.744;2022-11-20T08:08:37;13.85;;;5.97;;
48951;SDS011;34758;42.148;24.744;2022-11-20T08:11:04;11.20;;;4.78;;
48951;SDS011;34758;42.148;24.744;2022-11-20T08:13:48;13.43;;;5.22;;
48951;SDS011;34758;42.148;24.744;2022-11-20T08:16:33;16.80;;;5.88;;
48951;SDS011;34758;42.148;24.744;2022-11-20T08:19:00;14.20;;;5.82;;
48951;SDS011;34758;42.148;24.744;2022-11-20T08:21:27;11.82;;;6.55;;
48951;SDS011;34758;42.148;24.744;2022-11-20T08:23:55;14.02;;;5.28;;
48951;SDS011;34758;42.148;24.744;2022-11-20T08:26:23;16.02;;;7.00;;
48951;SDS011;34758;42.148;24.744;2022-11-20T08:28:52;17.85;;;7.13;;
48951;SDS011;34758;42.148;24.744;2022-11-20T08:31:21;18.43;;;7.07;;
48951;SDS011;34758;42.148;24.744;2022-11-20T08:33:49;13.38;;;5.60;;
48951;SDS011;34758;42.148;24.744;2022-11-20T08:36:17;14.40;;;6.25;;
48951;SDS011;34758;42.148;24.744;2022-11-20T08:38:46;11.98;;;5.88;;
48951;SDS011;34758;42.148;24.744;2022-11-20T08:41:15;11.25;;;6.45;;
48951;SDS011;34758;42.148;24.744;2022-11-20T08:43:53;14.27;;;6.72;;
48951;SDS011;34758;42.148;24.744;2022-11-20T08:46:22;10.23;;;5.40;;
48951;SDS011;34758;42.148;24.744;2022-11-20T08:48:50;12.63;;;6.05;;
48951;SDS011;34758;42.148;24.744;2022-11-20T08:51:17;9.98;;;6.10;;
48951;SDS011;34758;42.148;24.744;2022-11-20T08:53:44;8.23;;;5.10;;
48951;SDS011;34758;42.148;24.744;2022-11-20T08:56:15;18.92;;;7.15;;
48951;SDS011;34758;42.148;24.744;2022-11-20T08:58:43;13.32;;;7.85;;
48951;SDS011;34758;42.148;24.744;2022-11-20T09:01:10;17.08;;;8.27;;
48951;SDS011;34758;42.148;24.744;2022-11-20T09:03:37;23.23;;;12.05;;
48951;SDS011;34758;42.148;24.744;2022-11-20T09:06:05;19.13;;;11.57;;
48951;SDS011;34758;42.148;24.744;2022-11-20T09:08:33;16.45;;;10.40;;
48951;SDS011;34758;42.148;24.744;2022-11-20T09:11:01;10.98;;;6.57;;
48951;SDS011;34758;42.148;24.744;2022-11-20T09:13:29;11.35;;;4.57;;
48951;SDS011;34758;42.148;24.744;2022-11-20T09:15:57;11.15;;;4.72;;
48951;SDS011;34758;42.148;24.744;2022-11-20T09:18:26;10.48;;;3.80;;
48951;SDS011;34758;42.148;24.744;2022-11-20T09:20:55;7.32;;;2.83;;
48951;SDS011;34758;42.148;24.744;2022-11-20T09:23:22;10.15;;;2.83;;
48951;SDS011;34758;42.148;24.744;2022-11-20T09:25:51;9.25;;;3.08;;
48951;SDS011;34758;42.148;24.744;2022-11-20T09:28:20;8.85;;;2.58;;
48951;SDS011;34758;42.148;24.744;2022-11-20T09:30:49;11.45;;;2.78;;
48951;SDS011;34758;42.148;24.744;2022-11-20T09:33:16;8.05;;;3.03;;
48951;SDS011;34758;42.148;24.744;2022-11-20T09:35:43;6.38;;;2.10;;
48951;SDS011;34758;42.148;24.744;2022-11-20T09:38:11;7.25;;;2.60;;
48951;SDS011;34758;42.148;24.744;2022-11-20T09:40:40;8.43;;;2.75;;
48951;SDS011;34758;42.148;24.744;2022-11-20T09:43:12;5.53;;;2.05;;
48951;SDS011;34758;42.148;24.744;2022-11-20T09:45:50;10.05;;;3.30;;
48951;SDS011;34758;42.148;24.744;2022-11-20T09:51:12;17.80;;;10.30;;
48951;SDS011;34758;42.148;24.744;2022-11-20T09:53:46;12.20;;;5.38;;
48951;SDS011;34758;42.148;24.744;2022-11-20T09:56:19;8.43;;;3.88;;
48951;SDS011;34758;42.148;24.744;2022-11-20T09:58:47;11.02;;;4.30;;
48951;SDS011;34758;42.148;24.744;2022-11-20T10:01:18;10.77;;;3.85;;
48951;SDS011;34758;42.148;24.744;2022-11-20T10:03:50;12.32;;;4.70;;
48951;SDS011;34758;42.148;24.744;2022-11-20T10:06:22;11.85;;;5.38;;
48951;SDS011;34758;42.148;24.744;2022-11-20T10:08:54;10.80;;;4.75;;
48951;SDS011;34758;42.148;24.744;2022-11-20T10:11:32;10.73;;;4.15;;
48951;SDS011;34758;42.148;24.744;2022-11-20T10:14:06;12.45;;;5.93;;
48951;SDS011;34758;42.148;24.744;2022-11-20T10:16:45;13.80;;;6.70;;
48951;SDS011;34758;42.148;24.744;2022-11-20T10:19:22;12.23;;;7.18;;
48951;SDS011;34758;42.148;24.744;2022-11-20T10:21:59;16.40;;;7.80;;
48951;SDS011;34758;42.148;24.744;2022-11-20T10:24:41;11.45;;;5.70;;
48951;SDS011;34758;42.148;24.744;2022-11-20T10:27:16;12.02;;;5.40;;
48951;SDS011;34758;42.148;24.744;2022-11-20T10:29:55;14.63;;;6.35;;
48951;SDS011;34758;42.148;24.744;2022-11-20T10:32:30;10.57;;;4.93;;
48951;SDS011;34758;42.148;24.744;2022-11-20T10:35:01;9.82;;;4.25;;
48951;SDS011;34758;42.148;24.744;2022-11-20T10:37:33;11.25;;;3.67;;
48951;SDS011;34758;42.148;24.744;2022-11-20T10:40:05;12.25;;;5.45;;
48951;SDS011;34758;42.148;24.744;2022-11-20T10:42:45;13.27;;;4.78;;
48951;SDS011;34758;42.148;24.744;2022-11-20T10:45:15;14.35;;;5.28;;
48951;SDS011;34758;42.148;24.744;2022-11-20T10:47:49;13.48;;;4.95;;
48951;SDS011;34758;42.148;24.744;2022-11-20T10:50:18;12.18;;;4.72;;
48951;SDS011;34758;42.148;24.744;2022-11-20T10:52:49;12.45;;;4.60;;
48951;SDS011;34758;42.148;24.744;2022-11-20T10:55:25;11.60;;;4.75;;
48951;SDS011;34758;42.148;24.744;2022-11-20T10:57:57;11.45;;;5.13;;
48951;SDS011;34758;42.148;24.744;2022-11-20T11:00:30;11.05;;;4.70;;
48951;SDS011;34758;42.148;24.744;2022-11-20T11:02:59;10.38;;;4.20;;
48951;SDS011;34758;42.148;24.744;2022-11-20T11:05:36;11.60;;;4.72;;
48951;SDS011;34758;42.148;24.744;2022-11-20T11:08:05;15.93;;;5.22;;
48951;SDS011;34758;42.148;24.744;2022-11-20T11:10:39;15.50;;;5.82;;
48951;SDS011;34758;42.148;24.744;2022-11-20T11:15:45;12.57;;;6.20;;
48951;SDS011;34758;42.148;24.744;2022-11-20T11:18:22;11.15;;;4.68;;
48951;SDS011;34758;42.148;24.744;2022-11-20T11:20:51;14.10;;;5.80;;
48951;SDS011;34758;42.148;24.744;2022-11-20T11:23:31;13.13;;;5.97;;
48951;SDS011;34758;42.148;24.744;2022-11-20T11:25:59;16.45;;;5.30;;
48951;SDS011;34758;42.148;24.744;2022-11-20T11:28:27;12.88;;;7.03;;
48951;SDS011;34758;42.148;24.744;2022-11-20T11:30:55;15.00;;;6.78;;
48951;SDS011;34758;42.148;24.744;2022-11-20T11:33:24;15.07;;;6.72;;
48951;SDS011;34758;42.148;24.744;2022-11-20T11:35:52;14.50;;;5.13;;
48951;SDS011;34758;42.148;24.744;2022-11-20T11:38:23;10.80;;;4.05;;
48951;SDS011;34758;42.148;24.744;2022-11-20T11:40:56;8.15;;;3.47;;
48951;SDS011;34758;42.148;24.744;2022-11-20T11:43:24;14.55;;;4.65;;
48951;SDS011;34758;42.148;24.744;2022-11-20T11:46:21;12.95;;;4.35;;
48951;SDS011;34758;42.148;24.744;2022-11-20T11:53:51;21.17;;;7.10;;
48951;SDS011;34758;42.148;24.744;2022-11-20T11:56:19;14.75;;;5.03;;
48951;SDS011;34758;42.148;24.744;2022-11-20T11:58:47;16.02;;;6.47;;
48951;SDS011;34758;42.148;24.744;2022-11-20T12:01:20;13.95;;;6.53;;
48951;SDS011;34758;42.148;24.744;2022-11-20T12:03:53;10.75;;;4.15;;
48951;SDS011;34758;42.148;24.744;2022-11-20T12:06:25;12.23;;;4.40;;
48951;SDS011;34758;42.148;24.744;2022-11-20T12:08:55;12.95;;;4.50;;
48951;SDS011;34758;42.148;24.744;2022-11-20T12:11:29;8.70;;;3.85;;
48951;SDS011;34758;42.148;24.744;2022-11-20T12:13:58;14.60;;;7.47;;
48951;SDS011;34758;42.148;24.744;2022-11-20T12:16:29;18.30;;;9.57;;
48951;SDS011;34758;42.148;24.744;2022-11-20T12:18:58;16.90;;;8.38;;
48951;SDS011;34758;42.148;24.744;2022-11-20T12:21:28;19.13;;;7.05;;
48951;SDS011;34758;42.148;24.744;2022-11-20T12:24:15;13.57;;;5.95;;
48951;SDS011;34758;42.148;24.744;2022-11-20T12:27:06;14.68;;;5.78;;
48951;SDS011;34758;42.148;24.744;2022-11-20T12:29:51;12.80;;;5.82;;
48951;SDS011;34758;42.148;24.744;2022-11-20T12:32:29;17.27;;;6.20;;
48951;SDS011;34758;42.148;24.744;2022-11-20T12:35:05;16.92;;;5.70;;
48951;SDS011;34758;42.148;24.744;2022-11-20T12:37:43;18.30;;;6.28;;
48951;SDS011;34758;42.148;24.744;2022-11-20T12:40:17;14.70;;;6.60;;
48951;SDS011;34758;42.148;24.744;2022-11-20T12:42:56;21.77;;;10.30;;
48951;SDS011;34758;42.148;24.744;2022-11-20T12:45:51;27.67;;;11.60;;
48951;SDS011;34758;42.148;24.744;2022-11-20T12:51:31;31.27;;;15.55;;
48951;SDS011;34758;42.148;24.744;2022-11-20T12:54:10;38.72;;;17.73;;
48951;SDS011;34758;42.148;24.744;2022-11-20T12:56:52;26.45;;;10.52;;
48951;SDS011;34758;42.148;24.744;2022-11-20T12:59:25;24.55;;;10.15;;
48951;SDS011;34758;42.148;24.744;2022-11-20T13:02:01;21.65;;;7.80;;
48951;SDS011;34758;42.148;24.744;2022-11-20T13:04:43;16.00;;;6.43;;
48951;SDS011;34758;42.148;24.744;2022-11-20T13:07:21;21.55;;;7.38;;
48951;SDS011;34758;42.148;24.744;2022-11-20T13:09:48;18.42;;;7.18;;
48951;SDS011;34758;42.148;24.744;2022-11-20T13:12:17;15.27;;;5.80;;
48951;SDS011;34758;42.148;24.744;2022-11-20T13:14:52;15.00;;;5.88;;
48951;SDS011;34758;42.148;24.744;2022-11-20T13:17:23;14.75;;;5.65;;
48951;SDS011;34758;42.148;24.744;2022-11-20T13:19:56;17.10;;;5.70;;
48951;SDS011;34758;42.148;24.744;2022-11-20T13:22:27;14.65;;;4.32;;
48951;SDS011;34758;42.148;24.744;2022-11-20T13:24:55;15.13;;;4.00;;
48951;SDS011;34758;42.148;24.744;2022-11-20T13:27:22;17.20;;;4.57;;
48951;SDS011;34758;42.148;24.744;2022-11-20T13:30:00;17.30;;;4.68;;
48951;SDS011;34758;42.148;24.744;2022-11-20T13:32:47;18.55;;;3.70;;
48951;SDS011;34758;42.148;24.744;2022-11-20T13:35:23;18.70;;;4.70;;
48951;SDS011;34758;42.148;24.744;2022-11-20T13:38:03;16.10;;;3.70;;
48951;SDS011;34758;42.148;24.744;2022-11-20T13:40:33;16.90;;;2.83;;
48951;SDS011;34758;42.148;24.744;2022-11-20T13:43:07;16.20;;;3.38;;
48951;SDS011;34758;42.148;24.744;2022-11-20T13:45:37;16.88;;;2.30;;
48951;SDS011;34758;42.148;24.744;2022-11-20T13:48:14;10.77;;;2.35;;
48951;SDS011;34758;42.148;24.744;2022-11-20T13:50:48;13.25;;;2.40;;
48951;SDS011;34758;42.148;24.744;2022-11-20T13:53:29;15.38;;;2.22;;
48951;SDS011;34758;42.148;24.744;2022-11-20T13:58:36;19.70;;;2.17;;
48951;SDS011;34758;42.148;24.744;2022-11-20T14:01:10;12.00;;;2.42;;
48951;SDS011;34758;42.148;24.744;2022-11-20T14:03:41;8.40;;;1.58;;
48951;SDS011;34758;42.148;24.744;2022-11-20T14:06:11;8.82;;;1.15;;
48951;SDS011;34758;42.148;24.744;2022-11-20T14:08:41;13.63;;;1.05;;
48951;SDS011;34758;42.148;24.744;2022-11-20T14:11:15;9.80;;;4.23;;
48951;SDS011;34758;42.148;24.744;2022-11-20T14:13:53;5.60;;;1.15;;
48951;SDS011;34758;42.148;24.744;2022-11-20T14:16:22;7.30;;;1.00;;
48951;SDS011;34758;42.148;24.744;2022-11-20T14:18:50;8.07;;;2.80;;
48951;SDS011;34758;42.148;24.744;2022-11-20T14:21:23;9.18;;;1.60;;
48951;SDS011;34758;42.148;24.744;2022-11-20T14:24:04;8.07;;;2.42;;
48951;SDS011;34758;42.148;24.744;2022-11-20T14:26:31;5.55;;;1.98;;
48951;SDS011;34758;42.148;24.744;2022-11-20T14:28:58;4.88;;;2.00;;
48951;SDS011;34758;42.148;24.744;2022-11-20T14:31:27;2.65;;;0.60;;
48951;SDS011;34758;42.148;24.744;2022-11-20T14:33:55;6.15;;;1.42;;
48951;SDS011;34758;42.148;24.744;2022-11-20T14:36:22;3.05;;;0.70;;
48951;SDS011;34758;42.148;24.744;2022-11-20T14:38:51;5.55;;;1.40;;
48951;SDS011;34758;42.148;24.744;2022-11-20T14:41:22;4.95;;;0.60;;
48951;SDS011;34758;42.148;24.744;2022-11-20T14:43:51;5.20;;;0.98;;
48951;SDS011;34758;42.148;24.744;2022-11-20T14:46:21;3.40;;;0.70;;
48951;SDS011;34758;42.148;24.744;2022-11-20T14:48:49;4.50;;;1.17;;
48951;SDS011;34758;42.148;24.744;2022-11-20T14:51:28;8.48;;;3.50;;
48951;SDS011;34758;42.148;24.744;2022-11-20T14:54:08;4.60;;;1.80;;
48951;SDS011;34758;42.148;24.744;2022-11-20T14:56:38;6.45;;;1.70;;